Time;durP1;ratioP1;P1;durP2;ratioP2;P2;SDS_P1;SDS_P2;PMS_P1;PMS_P2;Temp;Humidity;BMP_temperature;BMP_pressure;BME280_temperature;BME280_humidity;BME280_pressure;Samples;Min_cycle;Max_cycle;Signal;HPM_P1;HPM_P2
2021/01/20 00:00:47;;;;;;;;;;;;;;;-19.89;87.46;101389.31;1895775;75;20144;-39
2021/01/20 00:03:16;;;;;;;;;;;;;;;-19.92;87.47;101383.97;1867357;77;20130;-40
2021/01/20 00:05:44;;;;;;;;;;;;;;;-19.93;87.52;101391.27;1867095;77;20171;-38
2021/01/20 00:08:12;;;;;;;;;;;;;;;-19.93;87.54;101379.69;1867435;77;20154;-40
2021/01/20 00:10:40;;;;;;;;;;;;;;;-19.94;87.55;101382.00;1867472;77;20236;-39
2021/01/20 00:13:08;;;;;;;;;;;;;;;-19.97;87.53;101385.06;1829659;78;20165;-38
2021/01/20 00:15:36;;;;;;;;;;;;;;;-19.98;87.55;101381.14;1829386;78;20125;-39
2021/01/20 00:18:05;;;;;;;;;;;;;;;-20.01;87.56;101382.91;1793375;80;20146;-39
2021/01/20 00:20:33;;;;;;;;;;;;;;;-20.04;87.57;101383.83;1790573;79;20544;-38
2021/01/20 00:23:00;;;;;;;;;;;;;;;-20.06;87.55;101386.86;1833707;78;20273;-44
2021/01/20 00:25:30;;;;;;;;;;;;;;;-20.09;87.55;101384.03;1811923;78;20463;-38
2021/01/20 00:27:57;;;;;;;;;;;;;;;-20.11;87.58;101377.97;1804135;80;20281;-46
2021/01/20 00:30:25;;;;;;;;;;;;;;;-20.12;87.58;101383.31;1804057;80;20150;-37
2021/01/20 00:32:54;;;;;;;;;;;;;;;-20.12;87.60;101387.41;1804263;80;20206;-38
2021/01/20 00:35:25;;;;;;;;;;;;;;;-20.15;87.63;101391.71;1804051;80;20155;-38
2021/01/20 00:37:53;;;;;;;;;;;;;;;-20.16;87.64;101387.79;1804117;80;20167;-38
2021/01/20 00:40:21;;;;;;;;;;;;;;;-20.17;87.63;101391.88;1804010;78;20233;-37
2021/01/20 00:42:49;;;;;;;;;;;;;;;-20.19;87.67;101393.30;1803976;80;20273;-38
2021/01/20 00:45:17;;;;;;;;;;;;;;;-20.20;87.67;101397.75;1804274;80;20234;-39
2021/01/20 00:47:47;;;;;;;;;;;;;;;-20.21;87.69;101398.85;1803881;80;20163;-38
2021/01/20 00:50:16;;;;;;;;;;;;;;;-20.23;87.71;101390.30;1804109;80;20178;-38
2021/01/20 00:52:43;;;;;;;;;;;;;;;-20.25;87.72;101395.99;1804139;80;20202;-37
2021/01/20 00:55:14;;;;;;;;;;;;;;;-20.26;87.72;101395.81;1804015;80;20270;-38
2021/01/20 00:57:44;;;;;;;;;;;;;;;-20.28;87.74;101395.63;1803924;80;20274;-38
2021/01/20 01:00:13;;;;;;;;;;;;;;;-20.29;87.78;101390.49;1804284;80;20158;-38
2021/01/20 01:02:42;;;;;;;;;;;;;;;-20.29;87.77;101388.00;1803621;79;20198;-38
2021/01/20 01:05:12;;;;;;;;;;;;;;;-20.33;87.75;101392.11;1823335;78;20149;-38
2021/01/20 01:07:40;;;;;;;;;;;;;;;-20.36;87.75;101398.02;1826469;78;20209;-37
2021/01/20 01:10:09;;;;;;;;;;;;;;;-20.38;87.76;101400.68;1825126;78;20187;-38
2021/01/20 01:12:56;;;;;;;;;;;;;;;-20.41;87.72;101402.45;1813904;78;20174;-37
2021/01/20 01:15:23;;;;;;;;;;;;;;;-20.45;87.74;101401.58;1813467;78;20186;-39
2021/01/20 01:17:52;;;;;;;;;;;;;;;-20.49;87.69;101409.42;1803974;80;20141;-37
2021/01/20 01:20:21;;;;;;;;;;;;;;;-20.55;87.62;101415.30;1803937;80;20226;-39
2021/01/20 01:22:48;;;;;;;;;;;;;;;-20.63;87.55;101418.15;1804058;80;20173;-39
2021/01/20 01:25:18;;;;;;;;;;;;;;;-20.67;87.55;101418.48;1804100;80;20178;-39
2021/01/20 01:27:48;;;;;;;;;;;;;;;-20.69;87.52;101417.44;1808550;78;20232;-37
2021/01/20 01:30:18;;;;;;;;;;;;;;;-20.74;87.51;101412.29;1836817;78;20141;-39
2021/01/20 01:32:45;;;;;;;;;;;;;;;-20.76;87.51;101412.10;1862946;77;20190;-39
2021/01/20 01:35:15;;;;;;;;;;;;;;;-20.78;87.48;101418.85;1855959;77;20241;-38
2021/01/20 01:37:45;;;;;;;;;;;;;;;-20.81;87.46;101409.80;1842998;78;20179;-39
2021/01/20 01:40:17;;;;;;;;;;;;;;;-20.85;87.42;101413.52;1821555;78;20318;-39
2021/01/20 01:43:03;;;;;;;;;;;;;;;-20.91;87.37;101408.17;1841340;78;20164;-45
2021/01/20 01:45:32;;;;;;;;;;;;;;;-20.98;87.31;101416.52;1842518;78;20146;-38
2021/01/20 01:48:00;;;;;;;;;;;;;;;-21.01;87.28;101425.25;1842488;78;20235;-38
2021/01/20 01:50:30;;;;;;;;;;;;;;;-21.06;87.29;101428.42;1842663;78;20445;-39
2021/01/20 01:52:58;;;;;;;;;;;;;;;-21.10;87.29;101431.27;1842727;78;20266;-39
2021/01/20 01:55:48;;;;;;;;;;;;;;;-21.11;87.31;101434.47;1837681;78;20279;-39
2021/01/20 01:58:33;;;;;;;;;;;;;;;-21.12;87.32;101432.68;1841247;78;20180;-37
2021/01/20 02:01:03;;;;;;;;;;;;;;;-21.16;87.31;101438.95;1842351;78;20180;-40
2021/01/20 02:03:32;;;;;;;;;;;;;;;-21.19;87.30;101443.55;1840741;78;20167;-37
2021/01/20 02:06:01;;;;;;;;;;;;;;;-21.21;87.29;101446.23;1842414;78;20204;-38
2021/01/20 02:08:30;;;;;;;;;;;;;;;-21.22;87.30;101445.69;1842615;78;20410;-39
2021/01/20 02:11:13;;;;;;;;;;;;;;;-21.22;87.32;101450.67;1819251;78;20190;-38
2021/01/20 02:13:43;;;;;;;;;;;;;;;-21.22;87.34;101449.42;1775855;79;20143;-37
2021/01/20 02:16:29;;;;;;;;;;;;;;;-21.24;87.35;101447.09;1809598;78;20171;-39
2021/01/20 02:18:59;;;;;;;;;;;;;;;-21.24;87.35;101449.94;1809726;79;20179;-38
2021/01/20 02:21:44;;;;;;;;;;;;;;;-21.26;87.38;101453.48;1809566;79;20120;-37
2021/01/20 02:27:09;;;;;;;;;;;;;;;-21.24;87.39;101451.18;1903324;74;20193;-40
2021/01/20 02:30:10;;;;;;;;;;;;;;;-21.32;87.35;101453.11;1882724;75;20152;-38
2021/01/20 02:32:39;;;;;;;;;;;;;;;-21.38;87.28;101454.52;1864179;75;20137;-38
2021/01/20 02:35:09;;;;;;;;;;;;;;;-21.44;87.25;101448.81;1835697;77;20714;-38
2021/01/20 02:37:37;;;;;;;;;;;;;;;-21.47;87.23;101450.05;1834826;77;20173;-38
2021/01/20 02:40:20;;;;;;;;;;;;;;;-21.51;87.21;101454.66;1866378;77;20146;-37
2021/01/20 02:43:08;;;;;;;;;;;;;;;-21.53;87.20;101458.58;1865978;77;20162;-40
2021/01/20 02:45:38;;;;;;;;;;;;;;;-21.56;87.17;101460.68;1861289;77;20138;-38
2021/01/20 02:48:06;;;;;;;;;;;;;;;-21.60;87.10;101470.98;1892596;75;20140;-39
2021/01/20 02:50:34;;;;;;;;;;;;;;;-21.67;87.03;101477.16;1903228;75;20443;-38
2021/01/20 02:53:13;;;;;;;;;;;;;;;-21.73;86.94;101480.16;1903144;75;20446;-38
2021/01/20 02:55:58;;;;;;;;;;;;;;;-21.81;86.83;101478.33;1870460;75;20142;-41
2021/01/20 02:58:44;;;;;;;;;;;;;;;-21.85;86.77;101476.16;1868390;77;20168;-39
2021/01/20 03:01:16;;;;;;;;;;;;;;;-21.92;86.71;101480.73;1865709;75;20156;-39
2021/01/20 03:03:44;;;;;;;;;;;;;;;-21.97;86.66;101481.81;1900565;75;20164;-45
2021/01/20 03:06:11;;;;;;;;;;;;;;;-21.99;86.67;101486.98;1900457;75;20143;-39
2021/01/20 03:08:39;;;;;;;;;;;;;;;-21.98;86.67;101484.11;1900624;75;20207;-37
2021/01/20 03:11:06;;;;;;;;;;;;;;;-22.01;86.65;101495.83;1900526;75;20188;-39
2021/01/20 03:13:37;;;;;;;;;;;;;;;-22.01;86.64;101497.42;1900578;75;20152;-38
2021/01/20 03:16:05;;;;;;;;;;;;;;;-22.03;86.62;101498.47;1900391;75;20120;-37
2021/01/20 03:18:34;;;;;;;;;;;;;;;-22.02;86.63;101500.61;1900456;75;20471;-38
2021/01/20 03:21:03;;;;;;;;;;;;;;;-22.02;86.64;101502.74;1900568;75;20195;-39
2021/01/20 03:23:30;;;;;;;;;;;;;;;-22.02;86.64;101503.98;1902227;75;20140;-39
2021/01/20 03:25:58;;;;;;;;;;;;;;;-22.02;86.59;101504.34;1902892;75;20263;-40
2021/01/20 03:28:26;;;;;;;;;;;;;;;-22.05;86.58;101504.84;1903357;75;20120;-39
2021/01/20 03:30:53;;;;;;;;;;;;;;;-22.06;86.53;101500.95;1903003;75;20187;-39
2021/01/20 03:33:21;;;;;;;;;;;;;;;-22.09;86.54;101509.25;1868385;75;20132;-40
2021/01/20 03:35:49;;;;;;;;;;;;;;;-22.09;86.52;101510.50;1832911;78;20156;-38
2021/01/20 03:38:16;;;;;;;;;;;;;;;-22.11;86.50;101513.14;1833107;78;20291;-37
2021/01/20 03:40:44;;;;;;;;;;;;;;;-22.14;86.51;101509.95;1839980;77;20188;-40
2021/01/20 03:43:11;;;;;;;;;;;;;;;-22.15;86.48;101513.48;1832690;78;20188;-43
2021/01/20 03:45:39;;;;;;;;;;;;;;;-22.20;86.42;101515.75;1832552;78;20160;-39
2021/01/20 03:48:07;;;;;;;;;;;;;;;-22.25;86.36;101513.06;1835567;77;20207;-40
2021/01/20 03:50:35;;;;;;;;;;;;;;;-22.31;86.32;101516.55;1832750;78;20482;-39
2021/01/20 03:53:03;;;;;;;;;;;;;;;-22.36;86.28;101518.81;1832682;78;20172;-38
2021/01/20 03:55:30;;;;;;;;;;;;;;;-22.40;86.24;101529.09;1832629;78;20166;-38
2021/01/20 03:57:58;;;;;;;;;;;;;;;-22.48;86.17;101530.97;1832695;78;20204;-39
2021/01/20 04:00:25;;;;;;;;;;;;;;;-22.52;86.13;101532.88;1837686;77;20142;-46
2021/01/20 04:02:53;;;;;;;;;;;;;;;-22.57;86.10;101533.53;1866575;77;20174;-38
2021/01/20 04:05:26;;;;;;;;;;;;;;;-22.60;86.08;101549.31;1864800;77;20427;-46
2021/01/20 04:07:53;;;;;;;;;;;;;;;-22.63;86.04;101548.02;1855972;77;20200;-39
2021/01/20 04:10:21;;;;;;;;;;;;;;;-22.67;86.07;101543.03;1832673;78;20235;-38
2021/01/20 04:12:49;;;;;;;;;;;;;;;-22.72;86.00;101553.63;1832496;78;20196;-38
2021/01/20 04:15:17;;;;;;;;;;;;;;;-22.76;86.02;101557.69;1832036;78;20236;-39
2021/01/20 04:17:45;;;;;;;;;;;;;;;-22.77;86.01;101562.48;1832462;78;20228;-39
2021/01/20 04:20:14;;;;;;;;;;;;;;;-22.78;86.01;101567.80;1832455;78;20465;-39
2021/01/20 04:22:42;;;;;;;;;;;;;;;-22.79;85.98;101566.35;1832327;78;20164;-40
2021/01/20 04:25:11;;;;;;;;;;;;;;;-22.83;85.92;101572.50;1832589;78;20145;-40
2021/01/20 04:27:39;;;;;;;;;;;;;;;-22.84;85.91;101569.85;1840017;77;20140;-41
2021/01/20 04:30:09;;;;;;;;;;;;;;;-22.85;85.89;101570.55;1866361;77;20154;-39
2021/01/20 04:32:37;;;;;;;;;;;;;;;-22.86;85.86;101571.23;1850096;77;20154;-38
2021/01/20 04:35:07;;;;;;;;;;;;;;;-22.89;85.83;101579.17;1835693;77;20143;-39
2021/01/20 04:37:34;;;;;;;;;;;;;;;-22.88;85.82;101583.80;1835493;78;20381;-38
2021/01/20 04:40:04;;;;;;;;;;;;;;;-22.89;85.83;101583.25;1835580;78;20270;-39
2021/01/20 04:42:33;;;;;;;;;;;;;;;-22.87;85.85;101579.37;1835378;77;20208;-38
2021/01/20 04:45:01;;;;;;;;;;;;;;;-22.85;85.87;101586.68;1837168;77;20302;-39
2021/01/20 04:47:29;;;;;;;;;;;;;;;-22.85;85.86;101587.92;1848380;77;20135;-50
2021/01/20 04:50:01;;;;;;;;;;;;;;;-22.86;85.86;101589.86;1849876;77;20209;-39
2021/01/20 04:52:28;;;;;;;;;;;;;;;-22.85;85.86;101591.30;1861607;77;20215;-39
2021/01/20 04:54:56;;;;;;;;;;;;;;;-22.83;85.86;101591.47;1832442;78;20298;-39
2021/01/20 04:57:24;;;;;;;;;;;;;;;-22.85;85.79;101595.38;1834933;77;20168;-42
2021/01/20 04:59:52;;;;;;;;;;;;;;;-22.88;85.72;101599.58;1834843;78;20133;-39
2021/01/20 05:02:20;;;;;;;;;;;;;;;-22.89;85.69;101601.86;1835754;78;20238;-38
2021/01/20 05:04:50;;;;;;;;;;;;;;;-22.92;85.62;101602.73;1832372;78;20176;-40
2021/01/20 05:07:18;;;;;;;;;;;;;;;-22.96;85.58;101601.43;1832737;78;20878;-41
2021/01/20 05:09:46;;;;;;;;;;;;;;;-22.99;85.53;101596.09;1832971;78;20379;-40
2021/01/20 05:12:34;;;;;;;;;;;;;;;-23.01;85.47;101603.68;1832193;78;20132;-44
2021/01/20 05:15:05;;;;;;;;;;;;;;;-23.06;85.39;101602.55;1832693;78;20252;-39
2021/01/20 05:17:34;;;;;;;;;;;;;;;-23.12;85.30;101603.91;1832420;78;20533;-41
2021/01/20 05:20:06;;;;;;;;;;;;;;;-23.15;85.28;101605.64;1832568;78;20137;-43
2021/01/20 05:22:34;;;;;;;;;;;;;;;-23.14;85.26;101602.47;1832546;78;20406;-39
2021/01/20 05:25:04;;;;;;;;;;;;;;;-23.15;85.23;101604.39;1832249;77;20279;-40
2021/01/20 05:27:31;;;;;;;;;;;;;;;-23.17;85.13;101612.36;1854816;77;20222;-39
2021/01/20 05:30:05;;;;;;;;;;;;;;;-23.20;85.05;101614.44;1836259;77;20283;-42
2021/01/20 05:32:33;;;;;;;;;;;;;;;-23.22;84.95;101617.95;1834898;77;20195;-38
2021/01/20 05:35:06;;;;;;;;;;;;;;;-23.24;84.85;101617.23;1837184;77;20369;-40
2021/01/20 05:37:43;;;;;;;;;;;;;;;-23.26;84.78;101619.50;1837301;77;20420;-38
2021/01/20 05:40:13;;;;;;;;;;;;;;;-23.24;84.79;101619.70;1851067;76;20460;-39
2021/01/20 05:42:46;;;;;;;;;;;;;;;-23.21;84.81;101620.09;1842405;77;20369;-40
2021/01/20 05:45:15;;;;;;;;;;;;;;;-23.15;84.82;101625.83;1845972;77;20153;-40
2021/01/20 05:48:03;;;;;;;;;;;;;;;-23.10;84.83;101633.55;1841882;77;20443;-40
2021/01/20 05:50:35;;;;;;;;;;;;;;;-23.05;84.82;101636.61;1812202;78;20267;-41
2021/01/20 05:53:10;;;;;;;;;;;;;;;-22.98;84.85;101630.49;1832332;77;20207;-38
2021/01/20 05:55:39;;;;;;;;;;;;;;;-22.93;84.84;101636.94;1858029;77;20137;-41
2021/01/20 05:58:06;;;;;;;;;;;;;;;-22.87;84.81;101640.20;1833526;77;20287;-41
2021/01/20 06:00:34;;;;;;;;;;;;;;;-22.85;84.76;101639.70;1835143;77;20194;-41
2021/01/20 06:03:05;;;;;;;;;;;;;;;-22.83;84.72;101638.29;1831814;77;20176;-41
2021/01/20 06:05:34;;;;;;;;;;;;;;;-22.80;84.65;101646.14;1836417;77;20152;-41
2021/01/20 06:08:03;;;;;;;;;;;;;;;-22.76;84.61;101649.55;1842296;77;20311;-39
2021/01/20 06:10:31;;;;;;;;;;;;;;;-22.72;84.58;101647.13;1820693;78;20188;-39
2021/01/20 06:12:58;;;;;;;;;;;;;;;-22.66;84.57;101649.45;1816484;78;20417;-41
2021/01/20 06:15:26;;;;;;;;;;;;;;;-22.62;84.54;101651.27;1803563;78;20155;-41
2021/01/20 06:17:54;;;;;;;;;;;;;;;-22.57;84.50;101652.73;1805200;79;20299;-41
2021/01/20 06:20:23;;;;;;;;;;;;;;;-22.51;84.49;101652.66;1808215;78;20206;-41
2021/01/20 06:22:52;;;;;;;;;;;;;;;-22.45;84.44;101655.91;1814568;78;20208;-41
2021/01/20 06:26:55;;;;;;;;;;;;;;;-22.30;84.42;101653.75;1893119;74;20201;-41
2021/01/20 06:29:25;;;;;;;;;;;;;;;-22.27;84.37;101651.12;1861658;75;20206;-41
2021/01/20 06:31:53;;;;;;;;;;;;;;;-22.22;84.33;101662.17;1867435;77;20190;-41
2021/01/20 06:34:21;;;;;;;;;;;;;;;-22.16;84.31;101659.21;1868828;75;20142;-42
2021/01/20 06:36:49;;;;;;;;;;;;;;;-22.06;84.33;101662.52;1867929;75;20846;-41
2021/01/20 06:39:30;;;;;;;;;;;;;;;-21.97;84.32;101658.33;1831330;77;20184;-41
2021/01/20 06:41:59;;;;;;;;;;;;;;;-21.87;84.31;101661.59;1841588;77;20494;-41
2021/01/20 06:44:27;;;;;;;;;;;;;;;-21.77;84.29;101662.02;1830128;77;20235;-42
2021/01/20 06:47:00;;;;;;;;;;;;;;;-21.66;84.27;101667.98;1831477;77;20298;-42
2021/01/20 06:49:30;;;;;;;;;;;;;;;-21.53;84.30;101674.13;1838478;77;20172;-41
2021/01/20 06:52:12;;;;;;;;;;;;;;;-21.38;84.31;101682.21;1829753;78;20430;-42
2021/01/20 06:54:43;;;;;;;;;;;;;;;-21.22;84.32;101680.91;1830375;77;20208;-42
2021/01/20 06:57:36;;;;;;;;;;;;;;;-21.07;84.25;101683.11;1832344;77;20143;-41
2021/01/20 07:00:13;;;;;;;;;;;;;;;-21.00;84.12;101681.91;1793806;80;20293;-42
2021/01/20 07:02:59;;;;;;;;;;;;;;;-20.89;84.07;101684.44;1816725;78;20146;-41
2021/01/20 07:05:37;;;;;;;;;;;;;;;-20.78;84.07;101686.27;1807704;78;20183;-41
2021/01/20 07:08:06;;;;;;;;;;;;;;;-20.69;84.01;101689.00;1827925;78;20173;-42
2021/01/20 07:10:59;;;;;;;;;;;;;;;-20.59;84.02;101689.73;1821180;78;20173;-42
2021/01/20 07:13:34;;;;;;;;;;;;;;;-20.41;84.11;101696.95;1842125;77;20174;-41
2021/01/20 07:16:05;;;;;;;;;;;;;;;-20.10;84.29;101695.21;1796153;79;20244;-42
2021/01/20 07:18:45;;;;;;;;;;;;;;;-19.75;84.46;101705.62;1796121;78;20192;-41
2021/01/20 07:21:21;;;;;;;;;;;;;;;-19.50;84.25;101710.27;1771986;80;20187;-41
2021/01/20 07:23:49;;;;;;;;;;;;;;;-19.32;84.01;101710.22;1826609;77;20181;-40
2021/01/20 07:26:17;;;;;;;;;;;;;;;-19.16;83.82;101717.53;1772818;79;20260;-42
2021/01/20 07:28:45;;;;;;;;;;;;;;;-19.05;83.53;101718.05;1831433;77;20196;-40
2021/01/20 07:31:19;;;;;;;;;;;;;;;-18.97;83.23;101723.03;1794887;77;20131;-41
2021/01/20 07:33:52;;;;;;;;;;;;;;;-18.92;82.93;101719.45;1832643;77;20176;-41
2021/01/20 07:36:22;;;;;;;;;;;;;;;-18.85;82.68;101728.18;1830665;77;20443;-41
2021/01/20 07:38:49;;;;;;;;;;;;;;;-18.72;82.57;101722.62;1835165;77;20451;-42
2021/01/20 07:41:21;;;;;;;;;;;;;;;-18.51;82.37;101725.38;1829606;77;20529;-42
2021/01/20 07:43:50;;;;;;;;;;;;;;;-18.45;81.98;101726.08;1829428;77;20186;-42
2021/01/20 07:46:24;;;;;;;;;;;;;;;-18.29;81.80;101727.95;1830122;77;20315;-42
2021/01/20 07:48:52;;;;;;;;;;;;;;;-18.11;81.59;101732.01;1850536;77;20141;-42
2021/01/20 07:51:21;;;;;;;;;;;;;;;-17.88;81.45;101733.83;1829556;77;20268;-42
2021/01/20 07:53:59;;;;;;;;;;;;;;;-17.69;81.10;101738.36;1828117;77;20232;-42
2021/01/20 07:56:30;;;;;;;;;;;;;;;-17.59;80.70;101738.28;1811854;78;20158;-41
2021/01/20 07:59:00;;;;;;;;;;;;;;;-17.56;80.14;101738.59;1791230;79;20214;-42
2021/01/20 08:01:29;;;;;;;;;;;;;;;-17.58;79.72;101730.02;1803239;78;20227;-42
2021/01/20 08:03:58;;;;;;;;;;;;;;;-17.51;79.42;101734.08;1821423;78;20187;-42
2021/01/20 08:06:26;;;;;;;;;;;;;;;-17.34;79.17;101733.08;1828280;77;20195;-41
2021/01/20 08:08:55;;;;;;;;;;;;;;;-17.26;78.58;101731.41;1829275;77;20277;-42
2021/01/20 08:11:25;;;;;;;;;;;;;;;-17.21;78.30;101737.80;1828485;77;20180;-43
2021/01/20 08:13:53;;;;;;;;;;;;;;;-17.02;78.03;101732.80;1824891;77;20228;-42
2021/01/20 08:16:20;;;;;;;;;;;;;;;-16.75;77.96;101732.36;1833540;77;20265;-42
2021/01/20 08:18:50;;;;;;;;;;;;;;;-16.49;77.31;101742.26;1832535;77;20498;-42
2021/01/20 08:21:20;;;;;;;;;;;;;;;-16.34;76.98;101741.73;1783688;77;20281;-43
2021/01/20 08:23:55;;;;;;;;;;;;;;;-16.08;76.65;101736.94;1831928;77;20226;-42
2021/01/20 08:26:25;;;;;;;;;;;;;;;-15.81;76.30;101739.41;1821789;77;20164;-42
2021/01/20 08:29:04;;;;;;;;;;;;;;;-15.62;75.62;101738.81;1835039;77;20187;-42
2021/01/20 08:31:32;;;;;;;;;;;;;;;-15.57;75.09;101732.27;1795880;79;20291;-42
2021/01/20 08:34:14;;;;;;;;;;;;;;;-15.39;74.67;101725.30;1820150;78;20239;-42
2021/01/20 08:36:58;;;;;;;;;;;;;;;-15.25;74.04;101724.55;1796274;78;20449;-41
2021/01/20 08:39:26;;;;;;;;;;;;;;;-15.20;73.65;101728.41;1791252;77;20202;-42
2021/01/20 08:42:16;;;;;;;;;;;;;;;-15.16;73.06;101730.12;1788160;77;20289;-42
2021/01/20 08:45:05;;;;;;;;;;;;;;;-15.23;72.46;101724.35;1828962;77;20198;-42
2021/01/20 08:47:36;;;;;;;;;;;;;;;-15.15;72.31;101719.70;1834133;77;20517;-42
2021/01/20 08:50:05;;;;;;;;;;;;;;;-15.15;72.02;101727.24;1834491;77;20223;-42
2021/01/20 08:52:46;;;;;;;;;;;;;;;-15.21;71.72;101730.03;1836286;76;20446;-42
2021/01/20 08:55:30;;;;;;;;;;;;;;;-15.18;71.85;101724.08;1838388;77;20291;-42
2021/01/20 08:58:33;;;;;;;;;;;;;;;-15.16;71.58;101725.49;1834954;77;20200;-42
2021/01/20 09:01:19;;;;;;;;;;;;;;;-15.16;71.48;101725.49;1834783;77;20159;-42
2021/01/20 09:04:04;;;;;;;;;;;;;;;-15.17;71.55;101721.20;1844196;77;20277;-42
2021/01/20 09:06:35;;;;;;;;;;;;;;;-15.14;71.68;101724.89;1806029;78;20180;-42
2021/01/20 09:09:04;;;;;;;;;;;;;;;-15.32;71.46;101724.66;1836731;77;20174;-42
2021/01/20 09:11:32;;;;;;;;;;;;;;;-15.48;71.79;101729.75;1841119;77;20213;-42
2021/01/20 09:14:00;;;;;;;;;;;;;;;-15.38;72.14;101727.45;1835657;77;20188;-42
2021/01/20 09:16:29;;;;;;;;;;;;;;;-15.35;72.33;101728.64;1814786;77;20188;-42
2021/01/20 09:18:57;;;;;;;;;;;;;;;-15.33;72.34;101727.91;1837204;77;20177;-41
2021/01/20 09:21:26;;;;;;;;;;;;;;;-15.36;72.49;101731.02;1835284;77;20391;-42
2021/01/20 09:23:55;;;;;;;;;;;;;;;-15.31;72.50;101732.73;1837528;77;20165;-42
2021/01/20 09:26:23;;;;;;;;;;;;;;;-15.33;72.50;101735.45;1833172;77;20174;-42
2021/01/20 09:28:51;;;;;;;;;;;;;;;-15.37;72.61;101732.64;1817462;78;20168;-42
2021/01/20 09:31:22;;;;;;;;;;;;;;;-15.37;72.79;101731.75;1811289;78;20226;-42
2021/01/20 09:33:50;;;;;;;;;;;;;;;-15.26;73.10;101729.05;1825165;77;20207;-42
2021/01/20 09:36:20;;;;;;;;;;;;;;;-15.19;73.16;101727.31;1817986;78;20386;-41
2021/01/20 09:38:48;;;;;;;;;;;;;;;-15.15;73.18;101728.13;1837459;77;20133;-41
2021/01/20 09:41:16;;;;;;;;;;;;;;;-15.07;73.23;101721.00;1837359;77;20254;-42
2021/01/20 09:43:45;;;;;;;;;;;;;;;-14.85;73.40;101720.63;1834950;77;20188;-41
2021/01/20 09:46:12;;;;;;;;;;;;;;;-14.77;73.07;101715.64;1830168;77;20598;-42
2021/01/20 09:48:40;;;;;;;;;;;;;;;-14.75;72.61;101717.02;1835727;77;20184;-42
2021/01/20 09:51:09;;;;;;;;;;;;;;;-14.86;72.21;101723.88;1789532;77;20208;-42
2021/01/20 09:53:36;;;;;;;;;;;;;;;-14.89;72.12;101720.68;1833515;77;20163;-42
2021/01/20 09:56:06;;;;;;;;;;;;;;;-14.84;72.05;101720.80;1838774;77;20169;-42
2021/01/20 09:58:45;;;;;;;;;;;;;;;-14.81;71.87;101722.70;1831560;77;20399;-42
2021/01/20 10:01:11;;;;;;;;;;;;;;;-14.93;71.83;101722.38;1832343;77;20474;-42
2021/01/20 10:03:39;;;;;;;;;;;;;;;-14.93;71.86;101718.61;1831515;77;20226;-42
2021/01/20 10:06:07;;;;;;;;;;;;;;;-14.87;72.07;101727.12;1828619;77;20141;-44
2021/01/20 10:08:34;;;;;;;;;;;;;;;-14.83;72.06;101723.80;1835022;77;20624;-41
2021/01/20 10:11:04;;;;;;;;;;;;;;;-14.75;72.08;101730.49;1832481;77;20178;-41
2021/01/20 10:13:34;;;;;;;;;;;;;;;-14.69;71.97;101728.95;1836022;77;20218;-42
2021/01/20 10:16:02;;;;;;;;;;;;;;;-14.69;71.97;101730.20;1812659;78;20220;-42
2021/01/20 10:18:31;;;;;;;;;;;;;;;-14.66;71.93;101730.16;1809162;78;20133;-42
2021/01/20 10:21:02;;;;;;;;;;;;;;;-14.63;71.89;101725.41;1832962;77;20443;-44
2021/01/20 10:26:50;;;;;;;;;;;;;;;-14.61;71.83;101724.31;1903294;74;20184;-48
2021/01/20 10:29:21;;;;;;;;;;;;;;;-14.79;71.74;101725.02;1865884;75;20269;-42
2021/01/20 10:31:50;;;;;;;;;;;;;;;-14.84;71.84;101724.94;1868901;75;20192;-42
2021/01/20 10:34:18;;;;;;;;;;;;;;;-14.85;71.94;101737.88;1869259;75;20194;-43
2021/01/20 10:36:46;;;;;;;;;;;;;;;-14.86;72.11;101731.43;1875450;75;20162;-42
2021/01/20 10:39:14;;;;;;;;;;;;;;;-14.79;72.37;101730.94;1876201;75;20274;-43
2021/01/20 10:41:42;;;;;;;;;;;;;;;-14.52;72.64;101732.78;1832435;77;20204;-42
2021/01/20 10:44:14;;;;;;;;;;;;;;;-14.29;72.56;101736.23;1816053;77;20264;-42
2021/01/20 10:46:48;;;;;;;;;;;;;;;-14.17;72.15;101734.54;1814275;77;20166;-42
2021/01/20 10:49:17;;;;;;;;;;;;;;;-14.17;71.72;101731.13;1800249;79;20270;-42
2021/01/20 10:51:50;;;;;;;;;;;;;;;-14.10;71.49;101733.50;1813961;78;20212;-42
2021/01/20 10:54:18;;;;;;;;;;;;;;;-14.07;71.18;101735.44;1833553;77;20445;-42
2021/01/20 10:56:46;;;;;;;;;;;;;;;-14.07;71.03;101733.81;1836417;77;20338;-42
2021/01/20 10:59:15;;;;;;;;;;;;;;;-13.98;70.96;101734.72;1813476;77;20379;-42
2021/01/20 11:01:43;;;;;;;;;;;;;;;-13.84;70.96;101732.23;1804516;78;20198;-42
2021/01/20 11:04:12;;;;;;;;;;;;;;;-13.67;70.74;101735.12;1812278;78;20552;-42
2021/01/20 11:06:40;;;;;;;;;;;;;;;-13.60;70.58;101730.81;1805250;78;20391;-42
2021/01/20 11:09:09;;;;;;;;;;;;;;;-13.53;70.30;101732.28;1807292;78;20711;-42
2021/01/20 11:11:36;;;;;;;;;;;;;;;-13.51;70.10;101727.88;1807516;78;20226;-42
2021/01/20 11:14:08;;;;;;;;;;;;;;;-13.66;69.78;101731.49;1807166;78;20202;-42
2021/01/20 11:16:38;;;;;;;;;;;;;;;-13.75;69.87;101724.30;1779184;78;20187;-42
2021/01/20 11:19:07;;;;;;;;;;;;;;;-13.82;69.83;101730.75;1783336;78;20299;-43
2021/01/20 11:21:35;;;;;;;;;;;;;;;-13.70;70.22;101733.18;1803986;78;20334;-42
2021/01/20 11:24:04;;;;;;;;;;;;;;;-13.69;70.10;101733.70;1809645;78;20258;-43
2021/01/20 11:26:32;;;;;;;;;;;;;;;-13.58;70.33;101732.19;1805078;78;20472;-43
2021/01/20 11:29:00;;;;;;;;;;;;;;;-13.35;70.46;101733.64;1806044;78;20281;-42
2021/01/20 11:31:28;;;;;;;;;;;;;;;-13.13;70.28;101731.50;1805667;78;20198;-43
2021/01/20 11:34:01;;;;;;;;;;;;;;;-12.99;70.07;101727.66;1807764;78;20496;-43
2021/01/20 11:36:31;;;;;;;;;;;;;;;-12.83;69.93;101725.83;1760325;80;20373;-42
2021/01/20 11:38:59;;;;;;;;;;;;;;;-12.74;69.47;101730.84;1764253;79;20222;-45
2021/01/20 11:41:27;;;;;;;;;;;;;;;-12.91;68.98;101733.05;1801406;78;20194;-42
2021/01/20 11:43:55;;;;;;;;;;;;;;;-12.89;68.95;101732.83;1807997;78;20147;-43
2021/01/20 11:46:23;;;;;;;;;;;;;;;-12.91;68.74;101736.84;1805115;78;20141;-43
2021/01/20 11:48:51;;;;;;;;;;;;;;;-12.91;68.66;101735.58;1805598;78;20202;-42
2021/01/20 11:51:19;;;;;;;;;;;;;;;-13.08;68.50;101740.71;1808941;78;20330;-42
2021/01/20 11:53:47;;;;;;;;;;;;;;;-13.05;68.76;101737.19;1802558;78;20188;-42
2021/01/20 11:56:15;;;;;;;;;;;;;;;-12.96;68.93;101735.16;1805187;78;21050;-41
2021/01/20 11:58:46;;;;;;;;;;;;;;;-12.83;68.93;101740.08;1768913;78;20564;-43
2021/01/20 12:01:14;;;;;;;;;;;;;;;-12.85;68.70;101739.03;1804517;78;20178;-43
2021/01/20 12:03:42;;;;;;;;;;;;;;;-12.84;68.79;101735.40;1806362;78;20271;-42
2021/01/20 12:06:12;;;;;;;;;;;;;;;-12.83;68.60;101740.97;1806600;78;20198;-42
2021/01/20 12:08:40;;;;;;;;;;;;;;;-12.86;68.49;101737.29;1807587;78;20155;-42
2021/01/20 12:11:10;;;;;;;;;;;;;;;-12.91;68.42;101740.25;1806167;78;20276;-42
2021/01/20 12:13:38;;;;;;;;;;;;;;;-12.93;68.48;101739.62;1806806;78;20205;-42
2021/01/20 12:16:06;;;;;;;;;;;;;;;-12.93;68.46;101745.92;1812586;78;20184;-46
2021/01/20 12:18:36;;;;;;;;;;;;;;;-13.12;68.26;101748.34;1802163;78;20483;-42
2021/01/20 12:21:05;;;;;;;;;;;;;;;-13.30;68.44;101749.56;1808363;78;20186;-42
2021/01/20 12:23:33;;;;;;;;;;;;;;;-13.44;68.75;101752.04;1804463;78;20289;-43
2021/01/20 12:26:01;;;;;;;;;;;;;;;-13.51;69.01;101758.13;1802466;78;20177;-42
2021/01/20 12:28:31;;;;;;;;;;;;;;;-13.59;69.28;101759.06;1808074;78;20148;-44
2021/01/20 12:30:59;;;;;;;;;;;;;;;-13.64;69.61;101761.86;1801708;78;20195;-43
2021/01/20 12:33:28;;;;;;;;;;;;;;;-13.65;69.94;101764.75;1803809;78;20248;-41
2021/01/20 12:35:59;;;;;;;;;;;;;;;-13.70;70.14;101765.95;1806328;78;20383;-42
2021/01/20 12:38:27;;;;;;;;;;;;;;;-13.76;70.28;101758.69;1806319;78;20240;-42
2021/01/20 12:40:57;;;;;;;;;;;;;;;-13.92;70.35;101764.64;1803670;78;20167;-47
2021/01/20 12:43:28;;;;;;;;;;;;;;;-14.11;70.71;101759.45;1804737;78;20196;-44
2021/01/20 12:45:59;;;;;;;;;;;;;;;-14.16;71.07;101760.61;1786465;78;20187;-42
2021/01/20 12:48:26;;;;;;;;;;;;;;;-14.18;71.37;101768.05;1815413;78;20321;-42
2021/01/20 12:50:56;;;;;;;;;;;;;;;-14.29;71.63;101771.12;1804495;78;20273;-42
2021/01/20 12:53:24;;;;;;;;;;;;;;;-14.35;71.92;101773.04;1805729;78;20685;-42